Portada
METAR-TAF:

METAR-TAF

Aeroports :

Buffalo, Minnesota, Estats Units d'Amèrica

Buffalo Municipal Airport

latitud: 45-09-32N, longitud: 093-50-35W, altitud: 295 m

Observació

L'informe es va fer fa 15 hores i 32 minuts, a les 15:15 UTC
Vent 7 kt del Nord-Oest
Temperatura -10°C
Humitat 85%
Pressió 1013 hPa
Visibilitat: 16.1 km
Cel ennuvolat a una alçada de 1500 ft
Cel cobert a una alçada de 4000 ft

METAR: KCFE 201515Z AUTO 32007KT 10SM BKN015 OVC040 M10/M12 A2992 RMK AO2 T10981123

Hora: 00:47 (06:47 UTC)


TAF: manca

Observacions i pronòstics meteorològics de més de 4000 aeroports (METAR i TAF).

Les estacions disponibles són els punts grocs i vermells al mapa.

Posi el ratolí al punt desitjat per veure el nom de l'estació.

Feu clic per veure les observacions i els pronòstics meteorològics.

Per canviar el mapa: feu clic els botons verds amb una creu de color negre per apropar; al botó verd amb un guió per allunyar la imatge; o en les fletxes verdes per a mapes adjacents.


METAR-TAF: